Time;durP1;ratioP1;P1;durP2;ratioP2;P2;SDS_P1;SDS_P2;PMS_P1;PMS_P2;Temp;Humidity;BMP_temperature;BMP_pressure;BME280_temperature;BME280_humidity;BME280_pressure;Samples;Min_cycle;Max_cycle;Signal;HPM_P1;HPM_P2
2023/06/19 00:01:25;;;;;;;19.48;12.68;;;;;;;21.71;62.88;100689.09;5012408;28;20030;-69
2023/06/19 00:03:51;;;;;;;19.40;12.63;;;;;;;21.69;62.93;100685.06;5010975;28;20022;-68
2023/06/19 00:06:16;;;;;;;20.15;12.80;;;;;;;21.67;62.66;100688.25;5012412;28;20045;-70
2023/06/19 00:08:42;;;;;;;20.35;12.73;;;;;;;21.64;62.64;100683.41;5012210;28;20029;-69
2023/06/19 00:11:07;;;;;;;19.15;12.82;;;;;;;21.66;62.46;100687.44;5012312;28;20030;-69
2023/06/19 00:13:33;;;;;;;21.35;13.75;;;;;;;21.67;62.62;100696.72;5012401;28;20026;-69
2023/06/19 00:16:00;;;;;;;20.70;13.18;;;;;;;21.65;62.52;100693.47;5012489;28;20037;-69
2023/06/19 00:18:26;;;;;;;20.25;13.77;;;;;;;21.57;63.15;100697.38;5011934;28;20080;-68
2023/06/19 00:20:52;;;;;;;19.88;12.77;;;;;;;21.54;63.17;100695.31;5012074;28;20111;-68
2023/06/19 00:23:18;;;;;;;20.70;13.85;;;;;;;21.54;63.11;100704.56;5012257;28;20025;-68
2023/06/19 00:25:44;;;;;;;21.50;13.52;;;;;;;21.54;63.32;100710.19;5012035;28;20026;-69
2023/06/19 00:28:11;;;;;;;21.73;14.02;;;;;;;21.55;63.12;100708.19;5011532;28;20159;-68
2023/06/19 00:30:37;;;;;;;20.17;13.27;;;;;;;21.52;63.43;100715.41;5011608;28;20022;-68
2023/06/19 00:33:03;;;;;;;19.60;13.30;;;;;;;21.51;63.66;100727.88;5011050;28;20029;-69
2023/06/19 00:35:28;;;;;;;21.77;13.55;;;;;;;21.51;63.67;100722.25;5011605;28;20092;-68
2023/06/19 00:37:53;;;;;;;20.23;13.57;;;;;;;21.46;63.80;100742.25;5011829;28;20041;-68
2023/06/19 00:40:28;;;;;;;20.73;12.77;;;;;;;21.39;63.68;100742.19;5011686;28;20440;-68
2023/06/19 00:42:54;;;;;;;21.08;13.75;;;;;;;21.31;64.17;100739.28;5011743;28;20026;-68
2023/06/19 00:45:19;;;;;;;20.38;13.07;;;;;;;21.25;64.36;100735.19;5010273;28;20057;-68
2023/06/19 00:47:45;;;;;;;20.13;13.02;;;;;;;21.15;64.78;100739.47;5011647;28;20085;-68
2023/06/19 00:50:11;;;;;;;19.98;13.10;;;;;;;21.07;65.04;100745.38;5011307;28;20070;-68
2023/06/19 00:52:37;;;;;;;20.20;13.00;;;;;;;20.95;65.46;100741.63;5011815;28;20044;-68
2023/06/19 00:55:04;;;;;;;21.35;13.27;;;;;;;20.88;65.87;100741.50;5010945;28;20034;-68
2023/06/19 00:57:30;;;;;;;20.13;13.40;;;;;;;20.80;66.54;100746.25;5011695;28;20022;-68
2023/06/19 00:59:57;;;;;;;20.70;13.68;;;;;;;20.76;66.66;100747.38;5011489;28;20022;-68
2023/06/19 01:02:23;;;;;;;20.35;13.52;;;;;;;20.70;67.02;100749.66;5011600;28;20482;-69
2023/06/19 01:04:49;;;;;;;20.35;13.27;;;;;;;20.64;67.30;100752.00;5011792;28;20029;-68
2023/06/19 01:07:18;;;;;;;20.52;13.50;;;;;;;20.58;67.82;100756.31;5011547;28;20030;-69
2023/06/19 01:09:53;;;;;;;20.30;13.68;;;;;;;20.49;68.28;100753.75;5011566;28;20057;-69
2023/06/19 01:12:23;;;;;;;20.23;12.95;;;;;;;20.38;69.00;100747.16;5011692;28;20496;-69
2023/06/19 01:14:55;;;;;;;20.65;12.70;;;;;;;20.38;69.13;100752.75;5011207;28;20025;-69
2023/06/19 01:17:21;;;;;;;21.08;13.30;;;;;;;20.31;69.75;100759.06;5011969;28;20072;-68
2023/06/19 01:19:47;;;;;;;20.70;12.85;;;;;;;20.29;69.86;100749.41;5011494;28;20444;-69
2023/06/19 01:22:31;;;;;;;18.83;12.48;;;;;;;20.26;70.14;100750.97;5010395;28;20034;-68
2023/06/19 01:24:57;;;;;;;19.52;12.52;;;;;;;20.27;70.24;100761.03;5011658;28;20052;-68
2023/06/19 01:27:31;;;;;;;18.98;12.10;;;;;;;20.31;70.30;100766.69;5011378;28;20066;-69
2023/06/19 01:29:58;;;;;;;19.70;12.10;;;;;;;20.29;70.50;100758.66;5014836;28;20350;-70
2023/06/19 01:33:01;;;;;;;21.13;12.57;;;;;;;20.36;69.21;100772.81;5014869;28;20041;-69
2023/06/19 01:35:33;;;;;;;19.23;11.75;;;;;;;20.24;71.23;100768.22;5015147;28;20032;-71
2023/06/19 01:37:59;;;;;;;20.17;12.10;;;;;;;20.27;71.67;100780.69;5014918;28;20108;-69
2023/06/19 01:40:27;;;;;;;19.55;12.07;;;;;;;20.16;72.22;100779.69;5015128;28;20113;-69
2023/06/19 01:42:54;;;;;;;19.50;11.60;;;;;;;20.14;72.50;100777.25;5015134;28;20067;-69
2023/06/19 01:45:20;;;;;;;18.52;12.00;;;;;;;20.10;72.73;100788.41;5014884;28;20073;-69
2023/06/19 01:47:45;;;;;;;19.02;11.80;;;;;;;20.12;73.14;100779.63;5014210;28;20430;-69
2023/06/19 01:50:10;;;;;;;18.65;11.70;;;;;;;20.10;73.37;100790.41;5013964;28;20026;-70
2023/06/19 01:52:37;;;;;;;19.05;11.23;;;;;;;20.12;73.17;100787.25;5013851;28;20038;-70
2023/06/19 01:55:03;;;;;;;18.77;11.18;;;;;;;20.07;73.93;100794.78;5014537;28;20025;-70
2023/06/19 01:57:28;;;;;;;20.25;11.48;;;;;;;20.12;73.75;100793.66;5014780;28;20028;-70
2023/06/19 01:59:54;;;;;;;18.80;11.63;;;;;;;20.07;74.31;100796.78;5014015;28;20037;-70
2023/06/19 02:02:19;;;;;;;18.52;11.40;;;;;;;20.04;74.66;100801.13;5014144;28;20109;-70
2023/06/19 02:04:44;;;;;;;18.42;11.15;;;;;;;20.02;75.29;100797.91;5014534;28;20850;-68
2023/06/19 02:07:10;;;;;;;18.25;11.75;;;;;;;19.97;75.78;100803.81;5014391;28;20038;-69
2023/06/19 02:09:37;;;;;;;18.13;11.10;;;;;;;19.95;75.93;100800.56;5013499;28;20107;-69
2023/06/19 02:12:02;;;;;;;18.55;11.68;;;;;;;19.89;76.32;100796.44;5014345;28;20723;-70
2023/06/19 02:14:28;;;;;;;17.63;11.20;;;;;;;19.85;76.40;100795.50;5014521;28;20030;-69
2023/06/19 02:16:53;;;;;;;18.88;11.55;;;;;;;19.75;77.46;100800.53;5014445;28;20064;-69
2023/06/19 02:19:19;;;;;;;18.27;11.40;;;;;;;19.73;77.35;100811.34;5014230;28;20450;-69
2023/06/19 02:21:44;;;;;;;18.30;11.50;;;;;;;19.67;77.81;100815.63;5014431;28;20045;-69
2023/06/19 02:24:09;;;;;;;18.48;11.07;;;;;;;19.67;78.06;100815.63;5014383;28;20398;-70
2023/06/19 02:26:35;;;;;;;18.25;10.98;;;;;;;19.62;78.83;100813.13;5014466;28;20338;-70
2023/06/19 02:29:00;;;;;;;18.63;11.27;;;;;;;19.56;79.57;100818.22;5013859;28;20367;-69
2023/06/19 02:31:25;;;;;;;17.90;11.15;;;;;;;19.57;79.69;100819.84;5014125;28;20022;-69
2023/06/19 02:33:51;;;;;;;16.85;10.50;;;;;;;19.54;80.35;100825.38;5014211;28;20026;-69
2023/06/19 02:36:19;;;;;;;17.17;10.60;;;;;;;19.55;80.65;100829.81;5014097;28;20541;-69
2023/06/19 02:38:48;;;;;;;17.75;11.00;;;;;;;19.55;80.52;100824.19;5013896;28;20513;-69
2023/06/19 02:41:14;;;;;;;17.95;11.25;;;;;;;19.57;80.69;100827.44;5013363;28;20643;-70
2023/06/19 02:43:42;;;;;;;17.00;10.70;;;;;;;19.55;81.15;100818.59;5013966;28;20057;-69
2023/06/19 02:46:07;;;;;;;17.10;10.63;;;;;;;19.53;81.43;100816.13;5014116;28;20168;-69
2023/06/19 02:48:33;;;;;;;17.17;10.30;;;;;;;19.42;82.10;100815.91;5014125;28;20474;-69
2023/06/19 02:50:58;;;;;;;16.73;10.48;;;;;;;19.32;82.27;100820.09;5012745;28;20029;-69
2023/06/19 02:53:23;;;;;;;17.58;10.77;;;;;;;19.27;83.14;100820.41;5014251;28;20108;-69
2023/06/19 02:55:49;;;;;;;17.33;10.77;;;;;;;19.18;83.88;100814.97;5012602;28;20018;-69
2023/06/19 02:58:14;;;;;;;17.17;10.75;;;;;;;19.05;85.15;100813.50;5013566;28;20029;-69
2023/06/19 03:00:39;;;;;;;17.02;10.27;;;;;;;18.97;85.49;100823.72;5013705;28;20367;-68
2023/06/19 03:03:05;;;;;;;16.55;10.23;;;;;;;18.86;86.04;100817.84;5014057;28;20034;-69
2023/06/19 03:05:30;;;;;;;17.48;10.55;;;;;;;18.85;86.81;100833.03;5013720;28;20026;-69
2023/06/19 03:07:55;;;;;;;17.08;10.98;;;;;;;18.75;87.99;100829.97;5013856;28;20421;-68
2023/06/19 03:10:21;;;;;;;17.80;10.90;;;;;;;18.68;87.99;100825.00;5013570;28;20022;-70
2023/06/19 03:12:46;;;;;;;18.67;11.45;;;;;;;18.69;88.62;100837.84;5013456;28;20087;-69
2023/06/19 03:15:11;;;;;;;18.50;11.35;;;;;;;18.62;89.66;100832.88;5013579;28;20080;-69
2023/06/19 03:17:36;;;;;;;18.42;11.98;;;;;;;18.57;90.24;100837.91;5013367;28;20112;-69
2023/06/19 03:20:02;;;;;;;18.52;11.45;;;;;;;18.55;90.20;100841.09;5013260;28;20025;-69
2023/06/19 03:22:27;;;;;;;18.95;11.60;;;;;;;18.53;90.80;100849.03;5013108;28;20018;-69
2023/06/19 03:24:52;;;;;;;17.55;11.60;;;;;;;18.54;91.25;100842.25;5013163;28;20065;-68
2023/06/19 03:27:18;;;;;;;17.75;11.40;;;;;;;18.48;91.36;100846.50;5011599;28;20482;-69
2023/06/19 03:29:43;;;;;;;18.48;11.65;;;;;;;18.46;91.97;100846.06;5013041;28;20104;-69
2023/06/19 03:32:08;;;;;;;17.40;11.77;;;;;;;18.40;92.77;100842.72;5013551;28;20018;-69
2023/06/19 03:34:34;;;;;;;17.88;11.55;;;;;;;18.40;92.91;100851.91;5013656;28;20025;-70
2023/06/19 03:36:59;;;;;;;18.38;11.75;;;;;;;18.38;93.28;100856.25;5012038;28;20041;-68
2023/06/19 03:39:24;;;;;;;19.70;11.52;;;;;;;18.36;93.56;100856.63;5011541;28;20407;-69
2023/06/19 03:41:50;;;;;;;19.15;11.55;;;;;;;18.36;93.96;100858.59;5012840;28;20526;-70
2023/06/19 03:44:15;;;;;;;17.90;11.68;;;;;;;18.39;93.51;100871.88;5013295;28;20029;-70
2023/06/19 03:46:40;;;;;;;18.20;11.32;;;;;;;18.39;93.63;100866.28;5013340;28;20025;-70
2023/06/19 03:49:06;;;;;;;16.48;10.80;;;;;;;18.46;93.36;100871.25;5013171;28;20389;-70
2023/06/19 03:51:32;;;;;;;20.05;11.43;;;;;;;18.51;93.64;100876.59;5012444;28;20018;-69
2023/06/19 03:53:58;;;;;;;17.98;10.70;;;;;;;18.60;92.80;100879.22;5012617;28;20022;-70
2023/06/19 03:56:23;;;;;;;18.00;10.77;;;;;;;18.61;92.98;100881.66;5011656;28;20492;-69
2023/06/19 03:58:48;;;;;;;17.95;11.00;;;;;;;18.64;93.04;100883.75;5012670;28;20105;-68
2023/06/19 04:01:14;;;;;;;17.58;10.43;;;;;;;18.65;93.38;100881.75;5012903;28;20091;-67
2023/06/19 04:03:39;;;;;;;17.75;11.07;;;;;;;18.65;93.59;100882.59;5012478;28;20026;-69
2023/06/19 04:06:04;;;;;;;17.63;10.75;;;;;;;18.69;93.53;100891.06;5012715;28;20128;-70
2023/06/19 04:08:29;;;;;;;18.67;10.85;;;;;;;18.74;93.35;100892.78;5012759;28;20037;-69
2023/06/19 04:10:55;;;;;;;18.27;10.80;;;;;;;18.79;93.33;100890.53;5012304;28;20022;-69
2023/06/19 04:13:20;;;;;;;18.70;11.10;;;;;;;18.73;94.89;100893.97;5012348;28;20378;-69
2023/06/19 04:15:46;;;;;;;17.95;11.35;;;;;;;18.71;94.94;100895.13;5012217;28;20029;-69
2023/06/19 04:18:11;;;;;;;18.30;11.35;;;;;;;18.76;94.84;100899.66;5012204;28;20049;-69
2023/06/19 04:20:37;;;;;;;19.23;11.50;;;;;;;18.75;95.52;100898.03;5012168;28;20056;-69
2023/06/19 04:23:02;;;;;;;18.88;11.02;;;;;;;18.74;96.22;100902.00;5012373;28;20026;-69
2023/06/19 04:25:27;;;;;;;19.40;11.43;;;;;;;18.81;95.52;100907.78;5012189;28;20378;-69
2023/06/19 04:27:53;;;;;;;19.75;11.55;;;;;;;18.80;96.25;100910.97;5010753;28;20458;-69
2023/06/19 04:30:20;;;;;;;19.52;11.27;;;;;;;18.79;96.73;100912.13;5012519;28;20060;-69
2023/06/19 04:32:46;;;;;;;17.60;11.35;;;;;;;18.80;96.49;100920.16;5012044;28;20466;-69
2023/06/19 04:35:11;;;;;;;19.25;10.98;;;;;;;18.89;95.69;100920.00;5012035;28;20128;-69
2023/06/19 04:37:37;;;;;;;19.58;11.63;;;;;;;18.95;95.39;100920.56;5010495;28;20026;-68
2023/06/19 04:40:03;;;;;;;19.13;11.10;;;;;;;18.95;96.06;100928.97;5012097;28;20059;-69
2023/06/19 04:42:28;;;;;;;18.75;11.65;;;;;;;18.93;96.30;100928.53;5010603;28;20022;-70
2023/06/19 04:44:55;;;;;;;18.58;11.38;;;;;;;18.92;96.66;100929.66;5011949;28;20048;-69
2023/06/19 04:47:23;;;;;;;18.90;12.10;;;;;;;18.89;96.56;100934.00;5012023;28;20034;-69
2023/06/19 04:49:48;;;;;;;18.58;11.32;;;;;;;18.98;96.26;100933.88;5011867;28;20051;-69
2023/06/19 04:52:13;;;;;;;21.15;11.57;;;;;;;18.99;96.47;100939.13;5011911;28;20108;-69
2023/06/19 04:54:38;;;;;;;19.13;11.85;;;;;;;18.97;96.80;100938.66;5011985;28;20029;-68
2023/06/19 04:57:04;;;;;;;18.52;11.82;;;;;;;18.98;96.84;100947.91;5011366;28;20058;-69
2023/06/19 04:59:30;;;;;;;19.83;11.88;;;;;;;19.00;96.47;100939.91;5012028;28;20537;-68
2023/06/19 05:01:56;;;;;;;19.17;12.00;;;;;;;18.98;97.47;100937.47;5012145;28;20034;-68
2023/06/19 05:04:22;;;;;;;19.90;12.40;;;;;;;18.99;97.07;100932.69;5014257;28;20097;-69
2023/06/19 05:06:48;;;;;;;18.70;11.80;;;;;;;19.02;97.32;100940.38;5015702;28;20038;-68
2023/06/19 05:09:13;;;;;;;19.65;12.77;;;;;;;19.02;97.21;100941.19;5014380;28;20022;-68
2023/06/19 05:11:38;;;;;;;19.50;12.82;;;;;;;19.02;97.61;100951.59;5015699;28;20116;-67
2023/06/19 05:14:04;;;;;;;18.67;12.15;;;;;;;18.99;98.10;100947.53;5015890;28;20111;-69
2023/06/19 05:16:29;;;;;;;19.42;12.70;;;;;;;19.02;97.07;100943.16;5015608;28;20026;-70
2023/06/19 05:18:54;;;;;;;20.15;12.57;;;;;;;19.05;97.75;100947.25;5015435;28;20420;-69
2023/06/19 05:21:20;;;;;;;18.70;12.20;;;;;;;19.10;97.32;100946.97;5015863;28;20053;-68
2023/06/19 05:23:50;;;;;;;21.15;13.13;;;;;;;19.17;96.57;100947.97;5015708;28;20040;-68
2023/06/19 05:26:15;;;;;;;21.25;12.70;;;;;;;19.22;96.25;100944.09;5015426;28;20561;-69
2023/06/19 05:28:41;;;;;;;20.40;12.43;;;;;;;19.31;95.62;100957.91;5014013;28;20066;-68
2023/06/19 05:31:06;;;;;;;22.02;12.30;;;;;;;19.33;95.64;100955.56;5015345;28;20536;-69
2023/06/19 05:33:31;;;;;;;19.52;12.35;;;;;;;19.33;95.96;100961.97;5015366;28;20026;-68
2023/06/19 05:35:56;;;;;;;20.52;12.55;;;;;;;19.34;95.22;100962.81;5015320;28;20470;-68
2023/06/19 05:38:23;;;;;;;22.27;12.30;;;;;;;19.36;94.40;100957.66;5015141;28;20030;-68
2023/06/19 05:40:50;;;;;;;20.15;12.80;;;;;;;19.38;95.38;100955.25;5015508;28;20029;-70
2023/06/19 05:43:15;;;;;;;21.40;12.20;;;;;;;19.43;95.25;100960.63;5015235;28;20580;-67
2023/06/19 05:45:40;;;;;;;20.30;12.05;;;;;;;19.53;94.31;100952.81;5015071;28;20116;-68
2023/06/19 05:48:05;;;;;;;21.30;12.80;;;;;;;19.52;94.73;100963.22;5015394;28;20032;-69
2023/06/19 05:50:31;;;;;;;19.52;12.63;;;;;;;19.62;93.40;100964.66;5015086;28;20437;-70
2023/06/19 05:52:56;;;;;;;20.27;13.07;;;;;;;19.68;93.61;100973.59;5015115;28;20112;-68
2023/06/19 05:55:22;;;;;;;21.23;13.05;;;;;;;19.80;92.61;100970.66;5014816;28;20022;-69
2023/06/19 05:57:47;;;;;;;20.85;12.82;;;;;;;19.87;92.27;100973.66;5014987;28;20026;-68
2023/06/19 06:00:16;;;;;;;19.88;11.95;;;;;;;19.96;91.62;100967.84;5013087;28;20022;-68
2023/06/19 06:02:41;;;;;;;19.67;12.65;;;;;;;20.13;90.98;100968.56;5013130;28;20036;-68
2023/06/19 06:05:08;;;;;;;19.67;12.52;;;;;;;20.29;89.83;100976.94;5012981;28;20038;-69
2023/06/19 06:07:34;;;;;;;19.13;13.18;;;;;;;20.38;89.01;100974.72;5012847;28;20026;-68
2023/06/19 06:09:59;;;;;;;20.70;13.13;;;;;;;20.41;88.32;100982.41;5014700;28;20026;-67
2023/06/19 06:12:24;;;;;;;19.73;12.25;;;;;;;20.52;87.32;100983.44;5014571;28;20395;-68
2023/06/19 06:14:50;;;;;;;19.13;12.02;;;;;;;20.64;87.02;100988.06;5013742;28;20049;-67
2023/06/19 06:17:15;;;;;;;20.08;12.77;;;;;;;20.69;86.23;100990.56;5014439;28;20018;-67
2023/06/19 06:19:40;;;;;;;19.63;12.65;;;;;;;20.73;86.45;100991.50;5014728;28;20032;-64
2023/06/19 06:22:05;;;;;;;21.77;13.75;;;;;;;20.67;87.19;100992.97;5014433;28;20474;-64
2023/06/19 06:24:31;;;;;;;20.48;13.02;;;;;;;20.75;86.19;101007.19;5014570;28;20038;-64
2023/06/19 06:26:56;;;;;;;20.33;12.65;;;;;;;20.81;84.74;101003.69;5013962;28;20021;-64
2023/06/19 06:29:21;;;;;;;20.20;13.13;;;;;;;20.80;84.58;101009.66;5013731;28;20053;-66
2023/06/19 06:31:47;;;;;;;21.15;12.68;;;;;;;20.80;84.04;101021.75;5014162;28;20080;-68
2023/06/19 06:34:13;;;;;;;20.40;12.82;;;;;;;20.77;83.09;101008.44;5013399;28;20048;-67
2023/06/19 06:36:38;;;;;;;20.92;12.80;;;;;;;20.84;82.29;101019.00;5014422;28;20073;-66
2023/06/19 06:39:03;;;;;;;20.02;13.20;;;;;;;20.78;82.12;101024.09;5014313;28;20026;-67
2023/06/19 06:41:29;;;;;;;20.67;13.88;;;;;;;20.77;80.82;101021.69;5014222;28;20026;-67
2023/06/19 06:43:55;;;;;;;21.75;14.25;;;;;;;20.80;80.46;101023.72;5014251;28;20397;-66
2023/06/19 06:46:21;;;;;;;20.50;13.93;;;;;;;20.87;79.45;101027.50;5003194;28;20045;-66
2023/06/19 06:48:46;;;;;;;20.85;14.30;;;;;;;20.85;78.99;101024.25;4974080;28;20046;-66
2023/06/19 06:51:11;;;;;;;21.20;14.38;;;;;;;20.97;77.44;101036.50;4974036;28;20113;-66
2023/06/19 06:53:37;;;;;;;20.80;13.88;;;;;;;21.06;76.19;101044.72;4974209;28;20034;-67
2023/06/19 06:56:02;;;;;;;21.50;14.65;;;;;;;21.13;75.75;101040.00;4990805;28;20068;-67
2023/06/19 06:58:28;;;;;;;21.75;14.95;;;;;;;21.33;74.90;101043.59;5012857;28;20052;-68
2023/06/19 07:00:54;;;;;;;21.02;14.80;;;;;;;21.49;74.59;101046.25;5005105;28;20042;-68
2023/06/19 07:03:19;;;;;;;20.92;14.75;;;;;;;21.61;73.72;101050.09;4993252;28;20554;-68
2023/06/19 07:05:44;;;;;;;22.02;15.93;;;;;;;21.58;72.25;101042.41;4992480;28;20038;-67
2023/06/19 07:08:10;;;;;;;21.60;15.38;;;;;;;21.54;71.81;101049.94;4992969;28;20030;-68
2023/06/19 07:10:35;;;;;;;22.63;15.82;;;;;;;21.57;71.73;101049.22;4991352;28;20022;-68
2023/06/19 07:13:01;;;;;;;23.23;15.75;;;;;;;21.61;71.25;101062.19;4992764;28;20022;-67
2023/06/19 07:15:26;;;;;;;28.90;16.42;;;;;;;21.64;71.22;101066.25;4992613;28;20100;-68
2023/06/19 07:17:52;;;;;;;25.10;16.35;;;;;;;21.60;70.62;101056.91;4992294;28;20073;-67
2023/06/19 07:20:17;;;;;;;29.90;17.73;;;;;;;21.65;70.79;101053.78;4993377;28;20042;-67
2023/06/19 07:22:43;;;;;;;30.20;17.05;;;;;;;21.66;70.56;101064.66;4995961;28;20034;-68
2023/06/19 07:25:10;;;;;;;24.52;15.68;;;;;;;21.69;70.29;101071.53;4996436;28;20041;-68
2023/06/19 07:27:36;;;;;;;21.70;15.75;;;;;;;21.79;70.21;101065.25;5011311;28;20095;-67
2023/06/19 07:30:01;;;;;;;64.72;22.27;;;;;;;21.85;70.24;101067.78;5012054;28;20026;-68
2023/06/19 07:32:28;;;;;;;37.75;18.00;;;;;;;21.77;71.06;101073.28;5012313;28;20136;-68
2023/06/19 07:34:54;;;;;;;167.25;33.67;;;;;;;21.83;70.66;101079.41;5009916;28;20541;-68
2023/06/19 07:37:20;;;;;;;28.25;17.05;;;;;;;22.02;70.24;101084.13;5011742;28;20487;-69
2023/06/19 07:39:47;;;;;;;24.63;15.85;;;;;;;22.07;69.28;101075.34;5010798;28;20030;-67
2023/06/19 07:42:13;;;;;;;21.70;16.17;;;;;;;22.13;68.60;101089.91;5012149;28;20033;-68
2023/06/19 07:44:38;;;;;;;23.80;16.52;;;;;;;22.07;69.04;101097.06;5011981;28;20129;-68
2023/06/19 07:47:04;;;;;;;24.45;15.65;;;;;;;22.13;68.80;101090.75;5012152;28;20514;-68
2023/06/19 07:49:29;;;;;;;22.73;16.63;;;;;;;22.20;68.29;101092.81;5011979;28;20566;-68
2023/06/19 07:51:54;;;;;;;22.15;16.48;;;;;;;22.27;67.67;101086.47;5013198;28;20652;-68
2023/06/19 07:54:20;;;;;;;22.73;17.30;;;;;;;22.27;66.94;101092.94;5011126;28;20029;-67
2023/06/19 07:56:45;;;;;;;22.30;15.77;;;;;;;22.32;66.88;101090.97;5011774;28;20451;-67
2023/06/19 07:59:11;;;;;;;25.88;16.58;;;;;;;22.43;66.64;101089.94;5010199;28;20032;-67
2023/06/19 08:01:36;;;;;;;24.73;16.15;;;;;;;22.53;67.03;101070.78;4998902;28;20053;-68
2023/06/19 08:04:01;;;;;;;21.73;15.70;;;;;;;22.60;65.88;101090.59;4991951;28;20102;-67
2023/06/19 08:06:27;;;;;;;23.13;15.82;;;;;;;22.73;65.41;101086.31;4992053;28;20065;-67
2023/06/19 08:08:52;;;;;;;23.80;16.45;;;;;;;22.71;64.88;101085.06;4991622;28;20045;-68
2023/06/19 08:11:17;;;;;;;22.88;15.57;;;;;;;22.78;65.87;101093.63;5004725;28;20053;-67
2023/06/19 08:13:43;;;;;;;22.15;15.85;;;;;;;22.74;65.18;101093.56;5011557;28;20482;-68
2023/06/19 08:16:10;;;;;;;22.98;15.73;;;;;;;22.80;64.74;101091.22;5011879;28;20520;-67
2023/06/19 08:18:35;;;;;;;22.33;15.00;;;;;;;22.84;64.99;101092.09;4995025;28;20049;-68
2023/06/19 08:21:01;;;;;;;23.05;15.40;;;;;;;22.87;65.02;101102.59;4992323;28;20534;-68
2023/06/19 08:23:26;;;;;;;27.77;16.52;;;;;;;22.83;64.95;101106.56;4991896;28;20092;-67
2023/06/19 08:25:51;;;;;;;41.83;19.85;;;;;;;22.80;64.82;101105.31;4992132;28;20477;-67
2023/06/19 08:28:17;;;;;;;45.03;18.45;;;;;;;22.72;64.52;101106.44;4991974;28;20633;-68
2023/06/19 08:30:44;;;;;;;33.25;17.55;;;;;;;22.66;64.80;101105.97;4991163;28;20048;-67
2023/06/19 08:33:10;;;;;;;27.40;16.08;;;;;;;22.77;64.29;101097.63;4993044;28;20034;-69
2023/06/19 08:35:35;;;;;;;23.42;16.27;;;;;;;22.85;63.89;101099.38;4989744;28;20086;-68
2023/06/19 08:38:00;;;;;;;32.10;17.80;;;;;;;22.95;64.06;101088.59;4991272;28;20026;-70
2023/06/19 08:40:26;;;;;;;23.23;15.43;;;;;;;23.07;64.54;101093.94;4989180;28;20041;-68
2023/06/19 08:42:52;;;;;;;26.65;15.70;;;;;;;23.22;63.26;101097.75;4991617;28;20109;-69
2023/06/19 08:45:20;;;;;;;26.80;16.10;;;;;;;23.47;62.55;101112.13;4991865;28;20426;-68
2023/06/19 08:47:47;;;;;;;28.05;16.23;;;;;;;23.39;61.89;101113.25;4995154;28;20511;-69
2023/06/19 08:50:13;;;;;;;22.17;14.57;;;;;;;23.38;62.80;101122.91;5011213;28;20049;-68
2023/06/19 08:52:38;;;;;;;21.88;15.55;;;;;;;23.46;62.37;101123.81;4999420;28;20494;-68
2023/06/19 08:55:04;;;;;;;22.70;15.98;;;;;;;23.51;62.05;101121.44;4984926;28;20026;-68
2023/06/19 08:57:34;;;;;;;24.13;15.93;;;;;;;23.68;61.60;101124.81;4982756;28;20102;-68
2023/06/19 08:59:59;;;;;;;22.67;15.90;;;;;;;23.74;61.33;101128.88;4978361;28;20030;-68
2023/06/19 09:02:36;;;;;;;23.20;17.15;;;;;;;23.75;61.10;101124.88;4972271;28;20034;-69
2023/06/19 09:05:13;;;;;;;23.13;16.15;;;;;;;23.91;61.03;101135.06;4972147;28;20178;-74
2023/06/19 09:07:38;;;;;;;23.02;15.90;;;;;;;24.05;60.49;101135.22;4984535;28;20506;-72
2023/06/19 09:10:17;;;;;;;20.98;15.35;;;;;;;24.16;59.75;101143.75;4989923;28;20050;-72
2023/06/19 09:12:44;;;;;;;22.05;15.35;;;;;;;23.94;59.11;101154.94;4992431;28;20482;-70
2023/06/19 09:15:15;;;;;;;22.40;14.60;;;;;;;23.91;59.82;101146.38;4992444;28;20121;-70
2023/06/19 09:17:41;;;;;;;21.35;15.73;;;;;;;24.10;58.41;101159.47;4985439;28;20026;-71
2023/06/19 09:20:07;;;;;;;23.45;15.30;;;;;;;24.09;58.32;101155.81;4994131;28;20057;-70
2023/06/19 09:22:32;;;;;;;23.13;15.18;;;;;;;24.17;57.72;101164.38;5008835;28;20053;-73
2023/06/19 09:25:02;;;;;;;22.13;15.02;;;;;;;24.03;58.52;101148.13;5004062;28;20056;-72
2023/06/19 09:27:36;;;;;;;25.13;15.35;;;;;;;23.92;58.55;101150.81;4995648;28;20054;-71
2023/06/19 09:30:03;;;;;;;21.92;14.45;;;;;;;24.06;58.37;101164.28;4999972;28;20375;-71
2023/06/19 09:32:28;;;;;;;20.83;14.65;;;;;;;24.16;57.18;101157.91;4992224;28;20105;-71
2023/06/19 09:35:00;;;;;;;21.50;14.93;;;;;;;24.14;56.74;101161.13;4990999;28;20423;-71
2023/06/19 09:37:30;;;;;;;28.92;16.45;;;;;;;24.18;57.47;101154.69;4978092;28;20027;-72
2023/06/19 09:39:58;;;;;;;23.27;15.07;;;;;;;24.41;57.04;101158.06;4972993;28;20062;-69
2023/06/19 09:42:33;;;;;;;23.52;16.05;;;;;;;24.38;56.36;101163.72;4988584;28;20041;-71
2023/06/19 09:45:06;;;;;;;21.13;14.00;;;;;;;24.45;56.39;101155.25;4992663;28;20026;-72
2023/06/19 09:47:37;;;;;;;20.92;14.00;;;;;;;24.69;56.44;101165.13;4992627;28;20064;-72
2023/06/19 09:50:03;;;;;;;24.58;14.13;;;;;;;24.82;55.45;101167.63;4994456;28;20068;-74
2023/06/19 09:52:29;;;;;;;21.27;13.95;;;;;;;24.88;55.48;101160.34;4996202;28;20033;-73
2023/06/19 09:54:56;;;;;;;21.17;13.95;;;;;;;24.86;55.85;101171.25;4984829;28;20034;-73
2023/06/19 09:57:24;;;;;;;21.08;13.95;;;;;;;24.90;55.27;101170.06;4991934;28;20121;-71
2023/06/19 09:59:56;;;;;;;22.60;14.07;;;;;;;25.01;54.62;101174.97;5007241;28;20129;-70
2023/06/19 10:02:22;;;;;;;22.17;14.73;;;;;;;24.96;54.03;101170.50;4999801;28;20030;-69
2023/06/19 10:04:53;;;;;;;21.40;14.70;;;;;;;24.94;54.29;101178.56;5010598;28;20539;-70
2023/06/19 10:07:21;;;;;;;21.15;13.45;;;;;;;24.80;52.79;101176.47;4999629;28;20127;-69
2023/06/19 10:10:06;;;;;;;21.73;13.75;;;;;;;24.76;52.71;101179.28;5004746;28;20030;-70
2023/06/19 10:12:46;;;;;;;20.45;13.65;;;;;;;24.76;53.21;101176.47;5002211;28;20037;-68
2023/06/19 10:15:16;;;;;;;21.70;14.35;;;;;;;24.75;53.38;101172.00;4984105;28;20022;-70
2023/06/19 10:17:44;;;;;;;23.15;15.15;;;;;;;24.89;53.16;101173.28;5013618;28;20112;-67
2023/06/19 10:20:19;;;;;;;21.30;14.45;;;;;;;25.02;53.73;101168.91;5000208;28;20030;-68
2023/06/19 10:23:03;;;;;;;27.30;16.35;;;;;;;25.14;53.37;101181.06;4986420;28;20066;-68
2023/06/19 10:25:30;;;;;;;;;;;;;;;25.32;52.89;101176.25;5000267;28;20494;-68
2023/06/19 10:27:55;;;;;;;21.90;13.80;;;;;;;25.13;53.46;101176.63;4980380;28;19976;-67
2023/06/19 10:30:20;;;;;;;22.75;14.93;;;;;;;25.16;52.99;101175.81;4981961;28;20062;-68
2023/06/19 10:32:47;;;;;;;21.42;13.95;;;;;;;25.34;51.30;101176.69;4990772;28;20105;-69
2023/06/19 10:35:14;;;;;;;21.85;14.13;;;;;;;25.37;50.81;101175.88;5006236;28;20025;-68
2023/06/19 10:37:39;;;;;;;21.92;14.05;;;;;;;25.38;50.84;101185.19;4993736;28;20022;-68
2023/06/19 10:40:08;;;;;;;23.48;13.50;;;;;;;25.48;49.96;101178.75;4997549;28;20474;-67
2023/06/19 10:42:34;;;;;;;19.95;13.27;;;;;;;25.60;50.05;101188.09;5002344;28;20034;-69
2023/06/19 10:45:05;;;;;;;21.65;13.98;;;;;;;25.69;49.35;101188.50;4990694;28;20084;-70
2023/06/19 10:47:32;;;;;;;22.17;13.88;;;;;;;25.84;49.30;101184.47;5009718;28;20026;-71
2023/06/19 10:49:57;;;;;;;20.15;12.95;;;;;;;25.87;48.36;101182.88;4997404;28;20022;-70
2023/06/19 10:52:23;;;;;;;20.90;13.15;;;;;;;25.90;47.86;101175.56;5004118;28;20366;-69
2023/06/19 10:54:56;;;;;;;21.98;13.63;;;;;;;25.97;49.01;101182.06;4994069;28;20033;-71
2023/06/19 10:57:29;;;;;;;20.42;13.55;;;;;;;25.95;48.41;101184.50;4984016;28;20487;-66
2023/06/19 10:59:54;;;;;;;21.70;13.43;;;;;;;25.90;47.35;101178.41;4977802;28;20038;-68
2023/06/19 11:02:21;;;;;;;21.35;12.40;;;;;;;25.87;46.79;101173.53;4980742;28;20037;-66
2023/06/19 11:04:46;;;;;;;20.67;12.60;;;;;;;25.81;46.93;101173.13;4991376;28;20060;-67
2023/06/19 11:07:12;;;;;;;20.60;13.27;;;;;;;25.82;47.36;101177.59;4991998;28;20034;-66